createdAt,value
2022-09-28T00:02:35.000Z,8.36
2022-09-28T00:07:34.000Z,8.22
2022-09-28T00:12:34.000Z,8.45
2022-09-28T00:17:34.000Z,8.6
2022-09-28T00:22:34.000Z,8.11
2022-09-28T00:27:35.000Z,8.4
2022-09-28T00:32:35.000Z,7.9
2022-09-28T00:37:34.000Z,6.72
2022-09-28T00:42:35.000Z,7.41
2022-09-28T00:47:35.000Z,6.99
2022-09-28T00:52:35.000Z,6.77
2022-09-28T00:57:34.000Z,7.91
2022-09-28T01:02:35.000Z,7.91
2022-09-28T01:07:35.000Z,5.59
2022-09-28T01:12:34.000Z,4.76
2022-09-28T01:22:34.000Z,4.76
2022-09-28T01:27:35.000Z,4.42
2022-09-28T01:32:35.000Z,4.93
2022-09-28T01:37:35.000Z,4.42
2022-09-28T01:42:34.000Z,4.25
2022-09-28T01:47:34.000Z,4.6
2022-09-28T01:52:34.000Z,4.08
2022-09-28T01:57:34.000Z,4.08
2022-09-28T02:02:34.000Z,4.19
2022-09-28T02:07:34.000Z,3.16
2022-09-28T02:12:34.000Z,3.36
2022-09-28T02:17:34.000Z,3.29
2022-09-28T02:22:34.000Z,2.95
2022-09-28T02:27:34.000Z,3.19
2022-09-28T02:32:34.000Z,2.97
2022-09-28T02:37:34.000Z,3.23
2022-09-28T02:42:35.000Z,2.82
2022-09-28T02:47:35.000Z,2.59
2022-09-28T02:52:35.000Z,2.23
2022-09-28T02:57:34.000Z,2.3
2022-09-28T03:02:35.000Z,2.72
2022-09-28T03:07:34.000Z,1.9
2022-09-28T03:12:34.000Z,1.9
2022-09-28T03:17:34.000Z,2.18
2022-09-28T03:22:34.000Z,2.02
2022-09-28T03:27:35.000Z,2.17
2022-09-28T03:32:35.000Z,1.91
2022-09-28T03:37:34.000Z,2.81
2022-09-28T03:42:35.000Z,2.46
2022-09-28T03:47:35.000Z,1.91
2022-09-28T03:52:35.000Z,3.03
2022-09-28T03:57:35.000Z,1.88
2022-09-28T04:02:35.000Z,1.76
2022-09-28T04:12:35.000Z,1.77
2022-09-28T04:17:35.000Z,2.8
2022-09-28T04:22:34.000Z,2.26
2022-09-28T04:27:35.000Z,1.64
2022-09-28T04:32:34.000Z,1.64
2022-09-28T04:37:34.000Z,2.1
2022-09-28T04:42:34.000Z,2.14
2022-09-28T04:47:34.000Z,1.82
2022-09-28T04:52:35.000Z,2.09
2022-09-28T04:57:34.000Z,1.81
2022-09-28T05:02:34.000Z,2.86
2022-09-28T05:07:35.000Z,2.2
2022-09-28T05:12:35.000Z,2.35
2022-09-28T05:17:35.000Z,2.61
2022-09-28T05:22:35.000Z,2.86
2022-09-28T05:27:35.000Z,3.85
2022-09-28T05:32:35.000Z,3.99
2022-09-28T05:37:35.000Z,3.29
2022-09-28T05:42:35.000Z,3.54
2022-09-28T05:47:34.000Z,3.54
2022-09-28T05:52:35.000Z,2.58
2022-09-28T05:57:34.000Z,3
2022-09-28T06:02:35.000Z,2.45
2022-09-28T06:07:35.000Z,2.14
2022-09-28T06:12:35.000Z,2.15
2022-09-28T06:17:35.000Z,2.04
2022-09-28T06:22:35.000Z,3.19
2022-09-28T06:27:35.000Z,2.92
2022-09-28T06:32:34.000Z,3.2
2022-09-28T06:37:34.000Z,2.78
2022-09-28T06:42:35.000Z,5.47
2022-09-28T06:47:35.000Z,3.41
2022-09-28T06:52:34.000Z,3.22
2022-09-28T06:57:35.000Z,2.5
2022-09-28T07:02:35.000Z,2.5
2022-09-28T07:07:35.000Z,3.71
2022-09-28T07:12:34.000Z,4.25
2022-09-28T07:17:35.000Z,3.63
2022-09-28T07:22:50.000Z,3.15
2022-09-28T07:27:39.000Z,2.71
2022-09-28T07:32:35.000Z,1.56
2022-09-28T07:37:34.000Z,1.97
2022-09-28T07:42:35.000Z,1.48
2022-09-28T07:47:34.000Z,1.4
2022-09-28T07:52:35.000Z,1.66
2022-09-28T07:57:35.000Z,2.3
2022-09-28T08:02:34.000Z,1.92
2022-09-28T08:07:35.000Z,1.63
2022-09-28T08:12:34.000Z,1.63
2022-09-28T08:17:35.000Z,2.15
2022-09-28T08:22:34.000Z,10.46
2022-09-28T08:27:35.000Z,4.66
2022-09-28T08:32:35.000Z,10.08
2022-09-28T08:37:34.000Z,3.57
2022-09-28T08:42:34.000Z,2.59
2022-09-28T08:47:34.000Z,2.94
2022-09-28T08:52:35.000Z,2.58
2022-09-28T08:57:35.000Z,1.96
2022-09-28T09:02:35.000Z,3.2
2022-09-28T09:07:34.000Z,1.98
2022-09-28T09:12:34.000Z,1.48
2022-09-28T09:17:35.000Z,2.54
2022-09-28T09:27:35.000Z,1.4
2022-09-28T09:32:34.000Z,12.57
2022-09-28T09:37:35.000Z,3.08
2022-09-28T09:42:35.000Z,1.65
2022-09-28T09:47:35.000Z,1.34
2022-09-28T09:52:35.000Z,1.92
2022-09-28T09:57:35.000Z,1.66
2022-09-28T10:02:35.000Z,1.66
2022-09-28T10:07:35.000Z,1.93
2022-09-28T10:12:35.000Z,2.43
2022-09-28T10:17:35.000Z,2.34
2022-09-28T10:22:35.000Z,4.83
2022-09-28T10:27:35.000Z,3.26
2022-09-28T10:32:35.000Z,3.46
2022-09-28T10:37:35.000Z,5.05
2022-09-28T10:42:35.000Z,5.64
2022-09-28T10:47:34.000Z,4.49
2022-09-28T10:52:35.000Z,4.66
2022-09-28T10:57:35.000Z,4.27
2022-09-28T11:02:35.000Z,4.5
2022-09-28T11:12:34.000Z,4.69
2022-09-28T11:17:35.000Z,4.92
2022-09-28T11:22:35.000Z,5.56
2022-09-28T11:27:35.000Z,5.71
2022-09-28T11:32:35.000Z,6.42
2022-09-28T11:37:34.000Z,6.9
2022-09-28T11:42:34.000Z,6.16
2022-09-28T11:47:35.000Z,5.87
2022-09-28T11:52:35.000Z,6.06
2022-09-28T11:57:35.000Z,5.09
2022-09-28T12:02:35.000Z,5.04
2022-09-28T12:07:35.000Z,5.11
2022-09-28T12:12:35.000Z,4.98
2022-09-28T12:17:35.000Z,4.98
2022-09-28T12:22:35.000Z,5.73
2022-09-28T12:27:35.000Z,5.42
2022-09-28T12:32:34.000Z,4.7
2022-09-28T12:37:35.000Z,5.76
2022-09-28T12:42:34.000Z,5.31
2022-09-28T12:47:35.000Z,6.17
2022-09-28T12:52:35.000Z,6.29
2022-09-28T12:57:35.000Z,6.75
2022-09-28T13:02:35.000Z,7.89
2022-09-28T13:07:35.000Z,8.34
2022-09-28T13:12:35.000Z,8.12
2022-09-28T13:17:35.000Z,23.3
2022-09-28T13:22:35.000Z,12.16
2022-09-28T13:27:35.000Z,12.16
2022-09-28T13:32:34.000Z,6.6
2022-09-28T13:37:34.000Z,6.28
2022-09-28T13:42:35.000Z,7.72
2022-09-28T13:47:34.000Z,6.74
2022-09-28T13:52:34.000Z,6.65
2022-09-28T13:57:34.000Z,6.54
2022-09-28T14:02:35.000Z,6.78
2022-09-28T14:07:35.000Z,7.11
2022-09-28T14:12:34.000Z,5.56
2022-09-28T14:17:34.000Z,5.58
2022-09-28T14:22:35.000Z,6.76
2022-09-28T14:27:34.000Z,5.53
2022-09-28T14:32:35.000Z,6.46
2022-09-28T14:37:35.000Z,7.01
2022-09-28T14:42:35.000Z,7.01
2022-09-28T14:47:35.000Z,7.89
2022-09-28T14:52:35.000Z,7.21
2022-09-28T14:57:34.000Z,6.18
2022-09-28T15:02:34.000Z,6
2022-09-28T15:07:35.000Z,6.39
2022-09-28T15:12:35.000Z,6.7
2022-09-28T15:17:35.000Z,6.69
2022-09-28T15:22:35.000Z,6.42
2022-09-28T15:27:34.000Z,6.39
2022-09-28T15:32:34.000Z,9.54
2022-09-28T15:37:35.000Z,10.38
2022-09-28T15:42:34.000Z,11.57
2022-09-28T15:47:35.000Z,12.43
2022-09-28T15:52:35.000Z,11.65
2022-09-28T15:57:35.000Z,11.71
2022-09-28T16:02:35.000Z,11.71
2022-09-28T16:07:35.000Z,12.15
2022-09-28T16:12:35.000Z,11.79
2022-09-28T16:17:34.000Z,12.24
2022-09-28T16:22:38.000Z,12.23
2022-09-28T16:27:35.000Z,12.53
2022-09-28T16:32:35.000Z,12.06
2022-09-28T16:37:34.000Z,12.11
2022-09-28T16:47:34.000Z,11.43
2022-09-28T16:52:35.000Z,11.41
2022-09-28T16:57:35.000Z,11.4
2022-09-28T17:02:56.000Z,11.94
2022-09-28T17:07:34.000Z,11.94
2022-09-28T17:12:35.000Z,11.61
2022-09-28T17:17:34.000Z,12.31
2022-09-28T17:22:35.000Z,12.58
2022-09-28T17:27:35.000Z,16.1
2022-09-28T17:32:35.000Z,18.66
2022-09-28T17:37:35.000Z,17.94
2022-09-28T17:42:34.000Z,18.43
2022-09-28T17:47:34.000Z,18.25
2022-09-28T17:52:35.000Z,18.71
2022-09-28T17:57:34.000Z,18.09
2022-09-28T18:02:35.000Z,18.78
2022-09-28T18:07:35.000Z,18.95
2022-09-28T18:12:35.000Z,15.1
2022-09-28T18:17:34.000Z,15.1
2022-09-28T18:22:35.000Z,11.58
2022-09-28T18:27:35.000Z,9.08
2022-09-28T18:32:34.000Z,9.4
2022-09-28T18:37:34.000Z,10.64
2022-09-28T18:42:35.000Z,9.88
2022-09-28T18:47:35.000Z,9.01
2022-09-28T18:52:35.000Z,8.05
2022-09-28T18:57:35.000Z,8.27
2022-09-28T19:02:34.000Z,8.23
2022-09-28T19:07:35.000Z,8.22
2022-09-28T19:12:35.000Z,8.65
2022-09-28T19:17:34.000Z,8.24
2022-09-28T19:22:34.000Z,9
2022-09-28T19:27:35.000Z,8.91
2022-09-28T19:32:35.000Z,8.91
2022-09-28T19:37:35.000Z,8.63
2022-09-28T19:42:34.000Z,9.21
2022-09-28T19:47:34.000Z,9.21
2022-09-28T19:52:35.000Z,10.14
2022-09-28T19:57:35.000Z,9.61
2022-09-28T20:02:35.000Z,9.22
2022-09-28T20:07:35.000Z,9.33
2022-09-28T20:12:35.000Z,9.43
2022-09-28T20:17:35.000Z,8.93
2022-09-28T20:22:34.000Z,9.69
2022-09-28T20:27:36.000Z,9.22
2022-09-28T20:32:35.000Z,9.83
2022-09-28T20:37:34.000Z,10.4
2022-09-28T20:42:35.000Z,10.15
2022-09-28T20:47:34.000Z,10.15
2022-09-28T20:52:34.000Z,10.46
2022-09-28T20:57:35.000Z,11.19
2022-09-28T21:02:34.000Z,11.74
2022-09-28T21:07:34.000Z,13.06
2022-09-28T21:12:35.000Z,16.52
2022-09-28T21:17:34.000Z,18.75
2022-09-28T21:22:35.000Z,18.62
2022-09-28T21:27:34.000Z,19.84
2022-09-28T21:32:35.000Z,19.92
2022-09-28T21:47:35.000Z,18.42
2022-09-28T21:52:35.000Z,18.3
2022-09-28T21:57:35.000Z,17.25
2022-09-28T22:02:34.000Z,17.3
2022-09-28T22:07:35.000Z,15.32
2022-09-28T22:12:34.000Z,15.61
2022-09-28T22:17:34.000Z,15.44
2022-09-28T22:22:39.000Z,14.46
2022-09-28T22:27:34.000Z,13.62
2022-09-28T22:32:35.000Z,14.63
2022-09-28T22:37:35.000Z,13.8
2022-09-28T22:42:34.000Z,14.08
2022-09-28T22:47:34.000Z,14.33
2022-09-28T22:52:34.000Z,13.51
2022-09-28T22:57:34.000Z,13.51
2022-09-28T23:02:34.000Z,13.45
2022-09-28T23:07:35.000Z,13.03
2022-09-28T23:12:35.000Z,12.45
2022-09-28T23:17:35.000Z,12.58
2022-09-28T23:22:34.000Z,11.88
2022-09-28T23:27:35.000Z,11.8
2022-09-28T23:32:41.000Z,12.12
2022-09-28T23:37:35.000Z,10.84
2022-09-28T23:42:34.000Z,10.72
2022-09-28T23:47:35.000Z,10.02
2022-09-28T23:52:35.000Z,10.93
2022-09-28T23:57:35.000Z,10.43
